createdAt,value
2023-03-14T00:00:52.988Z,938.83
2023-03-14T00:01:52.967Z,938.86
2023-03-14T00:02:53.000Z,938.85
2023-03-14T00:03:52.954Z,938.90
2023-03-14T00:04:52.937Z,938.93
2023-03-14T00:05:52.947Z,938.89
2023-03-14T00:06:52.906Z,938.91
2023-03-14T00:07:52.896Z,938.90
2023-03-14T00:08:52.893Z,938.94
2023-03-14T00:09:52.856Z,938.99
2023-03-14T00:10:52.871Z,939.01
2023-03-14T00:11:52.836Z,939.00
2023-03-14T00:12:52.850Z,939.00
2023-03-14T00:13:52.837Z,939.00
2023-03-14T00:14:52.792Z,939.02
2023-03-14T00:15:52.808Z,939.02
2023-03-14T00:16:52.765Z,939.05
2023-03-14T00:17:52.769Z,939.08
2023-03-14T00:18:52.753Z,939.07
2023-03-14T00:19:52.732Z,938.95
2023-03-14T00:20:52.706Z,938.87
2023-03-14T00:21:52.687Z,938.79
2023-03-14T00:22:52.690Z,938.74
2023-03-14T00:23:52.696Z,938.73
2023-03-14T00:24:52.663Z,938.73
2023-03-14T00:25:52.647Z,938.78
2023-03-14T00:26:52.635Z,938.77
2023-03-14T00:27:52.618Z,938.76
2023-03-14T00:28:52.675Z,938.73
2023-03-14T00:29:52.597Z,938.63
2023-03-14T00:30:52.652Z,938.57
2023-03-14T00:31:52.559Z,938.51
2023-03-14T00:32:52.622Z,938.50
2023-03-14T00:33:52.563Z,938.45
2023-03-14T00:34:52.542Z,938.43
2023-03-14T00:35:52.532Z,938.40
2023-03-14T00:36:52.498Z,938.41
2023-03-14T00:37:52.471Z,938.35
2023-03-14T00:38:52.505Z,938.42
2023-03-14T00:39:52.457Z,938.39
2023-03-14T00:40:52.462Z,938.41
2023-03-14T00:41:52.431Z,938.35
2023-03-14T00:42:52.419Z,938.22
2023-03-14T00:43:52.441Z,938.15
2023-03-14T00:44:52.389Z,938.08
2023-03-14T00:45:52.400Z,937.95
2023-03-14T00:46:52.437Z,937.82
2023-03-14T00:47:52.344Z,937.74
2023-03-14T00:48:52.347Z,937.66
2023-03-14T00:49:52.321Z,937.56
2023-03-14T00:50:52.314Z,937.53
2023-03-14T00:51:52.336Z,937.46
2023-03-14T00:52:52.299Z,937.43
2023-03-14T00:53:52.268Z,937.38
2023-03-14T00:54:52.262Z,937.39
2023-03-14T00:55:52.231Z,937.60
2023-03-14T00:56:52.242Z,937.72
2023-03-14T00:57:52.233Z,937.86
2023-03-14T00:58:52.187Z,937.94
2023-03-14T00:59:52.165Z,938.01
2023-03-14T01:00:52.183Z,938.04
2023-03-14T01:01:52.279Z,938.06
2023-03-14T01:02:52.210Z,938.09
2023-03-14T01:03:52.132Z,938.07
2023-03-14T01:04:52.112Z,938.04
2023-03-14T01:05:52.104Z,938.05
2023-03-14T01:06:52.119Z,938.10
2023-03-14T01:07:52.067Z,938.13
2023-03-14T01:08:52.064Z,938.23
2023-03-14T01:09:52.042Z,938.23
2023-03-14T01:10:52.040Z,938.17
2023-03-14T01:11:52.050Z,938.17
2023-03-14T01:12:52.027Z,938.20
2023-03-14T01:13:51.989Z,938.19
2023-03-14T01:14:51.971Z,938.19
2023-03-14T01:15:51.978Z,938.21
2023-03-14T01:16:51.975Z,938.24
2023-03-14T01:17:51.948Z,938.24
2023-03-14T01:18:51.918Z,938.28
2023-03-14T01:19:51.985Z,938.28
2023-03-14T01:20:51.893Z,938.26
2023-03-14T01:21:51.918Z,938.20
2023-03-14T01:22:51.863Z,938.23
2023-03-14T01:23:51.890Z,938.20
2023-03-14T01:24:51.845Z,938.20
2023-03-14T01:25:51.833Z,938.18
2023-03-14T01:26:51.846Z,938.11
2023-03-14T01:27:52.817Z,938.12
2023-03-14T01:28:51.792Z,938.09
2023-03-14T01:29:51.766Z,938.08
2023-03-14T01:30:51.765Z,938.09
2023-03-14T01:31:51.808Z,938.05
2023-03-14T01:32:51.766Z,938.05
2023-03-14T01:33:51.727Z,938.04
2023-03-14T01:34:51.743Z,938.06
2023-03-14T01:35:51.757Z,938.06
2023-03-14T01:36:51.686Z,938.01
2023-03-14T01:37:51.747Z,938.08
2023-03-14T01:38:51.660Z,938.12
2023-03-14T01:39:51.769Z,938.14
2023-03-14T01:40:51.651Z,938.18
2023-03-14T01:41:51.633Z,938.16
2023-03-14T01:42:51.635Z,938.19
2023-03-14T01:43:51.586Z,938.19
2023-03-14T01:44:51.571Z,938.18
2023-03-14T01:45:51.606Z,938.19
2023-03-14T01:46:51.569Z,938.17
2023-03-14T01:47:51.621Z,938.16
2023-03-14T01:48:51.598Z,938.16
2023-03-14T01:49:51.526Z,938.17
2023-03-14T01:50:51.532Z,938.21
2023-03-14T01:51:51.567Z,938.21
2023-03-14T01:52:51.468Z,938.18
2023-03-14T01:53:51.449Z,938.22
2023-03-14T01:54:51.479Z,938.16
2023-03-14T01:55:51.436Z,938.18
2023-03-14T01:56:51.407Z,938.12
2023-03-14T01:57:51.431Z,938.07
2023-03-14T01:58:51.396Z,938.02
2023-03-14T01:59:51.396Z,938.00
2023-03-14T02:00:51.414Z,937.97
2023-03-14T02:01:51.340Z,937.94
2023-03-14T02:02:51.337Z,937.93
2023-03-14T02:03:51.458Z,937.89
2023-03-14T02:04:51.326Z,937.92
2023-03-14T02:05:51.341Z,937.92
2023-03-14T02:06:51.266Z,937.87
2023-03-14T02:07:51.273Z,937.82
2023-03-14T02:08:51.252Z,937.87
2023-03-14T02:09:51.231Z,937.83
2023-03-14T02:10:51.255Z,937.85
2023-03-14T02:11:51.197Z,937.84
2023-03-14T02:12:51.193Z,937.82
2023-03-14T02:13:51.160Z,937.85
2023-03-14T02:14:51.175Z,937.93
2023-03-14T02:15:51.148Z,937.89
2023-03-14T02:16:51.164Z,937.98
2023-03-14T02:17:51.113Z,938.03
2023-03-14T02:18:51.164Z,937.96
2023-03-14T02:19:51.088Z,937.94
2023-03-14T02:20:51.086Z,937.93
2023-03-14T02:21:51.059Z,937.86
2023-03-14T02:22:51.049Z,937.82
2023-03-14T02:23:51.064Z,937.81
2023-03-14T02:24:51.014Z,937.77
2023-03-14T02:25:51.008Z,937.79
2023-03-14T02:26:50.991Z,937.82
2023-03-14T02:27:51.007Z,937.80
2023-03-14T02:28:50.978Z,937.87
2023-03-14T02:29:50.963Z,937.91
2023-03-14T02:30:50.953Z,937.99
2023-03-14T02:31:50.991Z,938.00
2023-03-14T02:32:50.992Z,937.99
2023-03-14T02:33:50.902Z,937.99
2023-03-14T02:34:50.958Z,938.04
2023-03-14T02:35:50.986Z,938.08
2023-03-14T02:36:50.850Z,938.14
2023-03-14T02:37:50.885Z,938.16
2023-03-14T02:38:50.819Z,938.20
2023-03-14T02:39:50.819Z,938.22
2023-03-14T02:40:50.810Z,938.21
2023-03-14T02:41:50.819Z,938.18
2023-03-14T02:42:50.783Z,938.19
2023-03-14T02:43:50.797Z,938.05
2023-03-14T02:44:50.758Z,937.94
2023-03-14T02:45:50.818Z,937.96
2023-03-14T02:46:50.734Z,937.97
2023-03-14T02:47:50.702Z,937.99
2023-03-14T02:48:50.680Z,938.01
2023-03-14T02:49:50.707Z,938.00
2023-03-14T02:50:50.672Z,938.03
2023-03-14T02:51:50.642Z,938.09
2023-03-14T02:52:50.655Z,938.14
2023-03-14T02:53:50.630Z,938.18
2023-03-14T02:54:50.602Z,938.17
2023-03-14T02:55:50.578Z,938.19
2023-03-14T02:56:50.580Z,938.17
2023-03-14T02:57:50.612Z,938.20
2023-03-14T02:58:50.578Z,938.20
2023-03-14T02:59:50.572Z,938.21
2023-03-14T03:00:50.524Z,938.22
2023-03-14T03:01:50.544Z,938.22
2023-03-14T03:02:50.484Z,938.25
2023-03-14T03:03:50.508Z,938.27
2023-03-14T03:04:50.515Z,938.24
2023-03-14T03:05:50.451Z,938.32
2023-03-14T03:06:50.460Z,938.22
2023-03-14T03:07:50.438Z,938.19
2023-03-14T03:08:50.435Z,938.14
2023-03-14T03:09:50.417Z,938.09
2023-03-14T03:10:50.390Z,938.07
2023-03-14T03:11:50.380Z,938.14
2023-03-14T03:12:50.367Z,938.07
2023-03-14T03:13:50.378Z,938.08
2023-03-14T03:14:50.378Z,938.07
2023-03-14T03:15:50.321Z,938.08
2023-03-14T03:16:50.361Z,938.08
2023-03-14T03:17:50.301Z,938.11
2023-03-14T03:18:50.328Z,938.11
2023-03-14T03:19:50.258Z,938.11
2023-03-14T03:20:50.258Z,938.12
2023-03-14T03:21:50.292Z,938.14
2023-03-14T03:22:50.206Z,938.11
2023-03-14T03:23:50.221Z,938.17
2023-03-14T03:24:50.194Z,938.21
2023-03-14T03:25:50.190Z,938.24
2023-03-14T03:26:50.194Z,938.30
2023-03-14T03:27:50.173Z,938.28
2023-03-14T03:28:50.173Z,938.31
2023-03-14T03:29:50.139Z,938.30
2023-03-14T03:30:50.271Z,938.36
2023-03-14T03:31:50.125Z,938.36
2023-03-14T03:32:50.157Z,938.35
2023-03-14T03:33:50.078Z,938.37
2023-03-14T03:34:50.071Z,938.44
2023-03-14T03:35:50.123Z,938.43
2023-03-14T03:36:50.100Z,938.43
2023-03-14T03:37:50.052Z,938.43
2023-03-14T03:38:50.003Z,938.44
2023-03-14T03:39:50.013Z,938.41
2023-03-14T03:40:50.002Z,938.44
2023-03-14T03:41:50.020Z,938.51
2023-03-14T03:42:49.999Z,938.50
2023-03-14T03:43:49.999Z,938.54
2023-03-14T03:44:49.938Z,938.59
2023-03-14T03:45:49.970Z,938.54
2023-03-14T03:46:49.940Z,938.56
2023-03-14T03:47:49.898Z,938.56
2023-03-14T03:48:49.920Z,938.59
2023-03-14T03:49:49.850Z,938.58
2023-03-14T03:50:49.845Z,938.55
2023-03-14T03:51:49.828Z,938.60
2023-03-14T03:52:49.814Z,938.60
2023-03-14T03:53:49.831Z,938.64
2023-03-14T03:54:49.803Z,938.66
2023-03-14T03:55:49.767Z,938.70
2023-03-14T03:56:49.773Z,938.70
2023-03-14T03:57:49.752Z,938.78
2023-03-14T03:58:49.753Z,938.82
2023-03-14T03:59:49.730Z,938.86
2023-03-14T04:00:49.746Z,938.86
2023-03-14T04:01:49.709Z,938.89
2023-03-14T04:02:49.798Z,938.92
2023-03-14T04:03:49.698Z,939.01
2023-03-14T04:04:49.660Z,939.07
2023-03-14T04:05:49.669Z,939.08
2023-03-14T04:06:49.652Z,939.12
2023-03-14T04:07:49.609Z,939.12
2023-03-14T04:08:49.604Z,939.09
2023-03-14T04:09:49.595Z,939.09
2023-03-14T04:10:49.648Z,939.08
2023-03-14T04:11:49.567Z,939.04
2023-03-14T04:12:49.557Z,939.05
2023-03-14T04:13:49.530Z,939.05
2023-03-14T04:14:49.533Z,939.07
2023-03-14T04:15:49.650Z,939.13
2023-03-14T04:16:49.521Z,939.13
2023-03-14T04:17:49.475Z,939.10
2023-03-14T04:18:49.458Z,939.09
2023-03-14T04:19:49.440Z,939.04
2023-03-14T04:20:49.455Z,939.05
2023-03-14T04:21:49.428Z,938.92
2023-03-14T04:22:49.409Z,938.89
2023-03-14T04:23:49.394Z,938.82
2023-03-14T04:24:49.434Z,938.75
2023-03-14T04:25:51.497Z,938.75
2023-03-14T04:26:49.372Z,938.83
2023-03-14T04:27:50.273Z,938.83
2023-03-14T04:28:49.360Z,938.79
2023-03-14T04:29:49.323Z,938.79
2023-03-14T04:30:49.291Z,938.82
2023-03-14T04:31:49.299Z,938.78
2023-03-14T04:32:49.312Z,938.79
2023-03-14T04:33:49.250Z,938.80
2023-03-14T04:34:49.249Z,938.79
2023-03-14T04:35:49.259Z,938.84
2023-03-14T04:36:49.249Z,938.77
2023-03-14T04:37:49.217Z,938.75
2023-03-14T04:38:49.178Z,938.68
2023-03-14T04:39:49.182Z,938.63
2023-03-14T04:40:49.155Z,938.58
2023-03-14T04:41:49.169Z,938.59
2023-03-14T04:42:49.129Z,938.54
2023-03-14T04:43:49.109Z,938.49
2023-03-14T04:44:49.120Z,938.47
2023-03-14T04:45:49.094Z,938.44
2023-03-14T04:46:49.142Z,938.40
2023-03-14T04:47:49.084Z,938.36
2023-03-14T04:48:49.057Z,938.35
2023-03-14T04:49:49.069Z,938.31
2023-03-14T04:50:49.018Z,938.32
2023-03-14T04:51:49.025Z,938.35
2023-03-14T04:52:48.987Z,938.47
2023-03-14T04:53:48.973Z,938.47
2023-03-14T04:54:49.005Z,938.43
2023-03-14T04:55:48.945Z,938.44
2023-03-14T04:56:48.922Z,938.39
2023-03-14T04:57:48.919Z,938.37
2023-03-14T04:58:48.939Z,938.39
2023-03-14T04:59:48.894Z,938.31
2023-03-14T05:00:48.920Z,938.27
2023-03-14T05:01:48.969Z,938.22
2023-03-14T05:02:48.891Z,938.24
2023-03-14T05:03:48.844Z,938.24
2023-03-14T05:04:48.833Z,938.15
2023-03-14T05:05:48.817Z,938.10
2023-03-14T05:06:48.870Z,938.15
2023-03-14T05:07:48.793Z,938.16
2023-03-14T05:08:48.785Z,938.20
2023-03-14T05:09:48.753Z,938.23
2023-03-14T05:10:48.761Z,938.30
2023-03-14T05:11:48.777Z,938.15
2023-03-14T05:12:48.796Z,938.17
2023-03-14T05:13:48.719Z,938.12
2023-03-14T05:14:48.739Z,938.19
2023-03-14T05:15:48.699Z,938.23
2023-03-14T05:16:48.669Z,938.23
2023-03-14T05:17:48.652Z,938.21
2023-03-14T05:18:48.684Z,938.23
2023-03-14T05:19:48.625Z,938.17
2023-03-14T05:20:48.621Z,938.08
2023-03-14T05:21:48.605Z,938.07
2023-03-14T05:22:48.645Z,938.09
2023-03-14T05:23:48.574Z,938.11
2023-03-14T05:24:48.558Z,938.05
2023-03-14T05:25:48.538Z,938.06
2023-03-14T05:26:48.540Z,937.99
2023-03-14T05:27:48.542Z,938.00
2023-03-14T05:28:48.518Z,937.96
2023-03-14T05:29:48.490Z,938.01
2023-03-14T05:30:48.509Z,938.04
2023-03-14T05:31:48.538Z,937.99
2023-03-14T05:32:48.495Z,937.90
2023-03-14T05:33:48.489Z,937.87
2023-03-14T05:34:48.440Z,937.87
2023-03-14T05:35:48.418Z,937.83
2023-03-14T05:36:48.392Z,937.84
2023-03-14T05:37:48.383Z,937.77
2023-03-14T05:38:48.400Z,937.69
2023-03-14T05:39:48.365Z,937.67
2023-03-14T05:40:48.348Z,937.57
2023-03-14T05:41:48.371Z,937.58
2023-03-14T05:42:48.342Z,937.53
2023-03-14T05:43:48.300Z,937.51
2023-03-14T05:44:48.304Z,937.48
2023-03-14T05:45:48.299Z,937.49
2023-03-14T05:46:48.288Z,937.45
2023-03-14T05:47:48.250Z,937.44
2023-03-14T05:48:48.268Z,937.38
2023-03-14T05:49:48.221Z,937.41
2023-03-14T05:50:48.200Z,937.27
2023-03-14T05:51:48.211Z,937.26
2023-03-14T05:52:48.184Z,937.25
2023-03-14T05:53:48.210Z,937.26
2023-03-14T05:54:48.189Z,937.29
2023-03-14T05:55:48.136Z,937.25
2023-03-14T05:56:48.126Z,937.22
2023-03-14T05:57:48.135Z,937.28
2023-03-14T05:58:48.132Z,937.29
2023-03-14T05:59:48.096Z,937.30
2023-03-14T06:00:48.094Z,937.27
2023-03-14T06:01:48.083Z,937.21
2023-03-14T06:02:48.082Z,937.23
2023-03-14T06:03:48.098Z,937.29
2023-03-14T06:04:48.036Z,937.31
2023-03-14T06:05:48.020Z,937.34
2023-03-14T06:06:47.981Z,937.38
2023-03-14T06:07:48.006Z,937.38
2023-03-14T06:08:47.969Z,937.40
2023-03-14T06:09:47.951Z,937.35
2023-03-14T06:10:47.948Z,937.35
2023-03-14T06:11:47.945Z,937.35
2023-03-14T06:12:47.970Z,937.30
2023-03-14T06:13:47.908Z,937.27
2023-03-14T06:14:47.911Z,937.22
2023-03-14T06:15:47.901Z,937.23
2023-03-14T06:16:47.895Z,937.21
2023-03-14T06:17:47.895Z,937.18
2023-03-14T06:18:47.861Z,937.13
2023-03-14T06:19:47.853Z,937.11
2023-03-14T06:20:47.793Z,937.04
2023-03-14T06:21:47.790Z,936.99
2023-03-14T06:22:47.785Z,936.90
2023-03-14T06:23:47.790Z,936.92
2023-03-14T06:24:47.759Z,936.90
2023-03-14T06:25:47.778Z,936.97
2023-03-14T06:26:47.735Z,937.04
2023-03-14T06:27:47.704Z,937.12
2023-03-14T06:28:47.719Z,937.16
2023-03-14T06:29:47.703Z,937.14
2023-03-14T06:30:47.759Z,937.12
2023-03-14T06:31:47.657Z,937.13
2023-03-14T06:32:47.690Z,937.05
2023-03-14T06:33:47.802Z,937.02
2023-03-14T06:34:47.625Z,937.00
2023-03-14T06:35:47.700Z,936.98
2023-03-14T06:36:47.600Z,937.01
2023-03-14T06:37:47.579Z,937.06
2023-03-14T06:38:47.582Z,937.07
2023-03-14T06:39:47.554Z,937.09
2023-03-14T06:40:47.560Z,937.10
2023-03-14T06:41:47.516Z,937.10
2023-03-14T06:42:47.510Z,937.04
2023-03-14T06:43:47.497Z,937.03
2023-03-14T06:44:47.486Z,937.04
2023-03-14T06:45:47.540Z,937.04
2023-03-14T06:46:47.471Z,937.05
2023-03-14T06:47:47.439Z,937.09
2023-03-14T06:48:47.440Z,937.02
2023-03-14T06:49:48.908Z,937.01
2023-03-14T06:50:47.398Z,937.00
2023-03-14T06:51:47.406Z,937.01
2023-03-14T06:52:47.414Z,937.04
2023-03-14T06:53:47.413Z,937.01
2023-03-14T06:54:47.340Z,937.04
2023-03-14T06:55:47.356Z,937.03
2023-03-14T06:56:47.331Z,937.03
2023-03-14T06:57:47.334Z,937.03
2023-03-14T06:58:50.122Z,937.03
2023-03-14T06:59:47.313Z,937.08
2023-03-14T07:00:47.303Z,937.09
2023-03-14T07:01:47.278Z,937.11
2023-03-14T07:02:47.249Z,937.09
2023-03-14T07:03:47.234Z,937.12
2023-03-14T07:04:47.273Z,937.13
2023-03-14T07:05:47.220Z,937.16
2023-03-14T07:06:47.193Z,937.17
2023-03-14T07:07:47.186Z,937.13
2023-03-14T07:08:47.175Z,937.15
2023-03-14T07:09:47.473Z,937.12
2023-03-14T07:10:47.149Z,937.09
2023-03-14T07:11:47.181Z,937.11
2023-03-14T07:12:47.120Z,937.13
2023-03-14T07:13:47.120Z,937.07
2023-03-14T07:14:47.116Z,937.06
2023-03-14T07:15:47.123Z,937.07
2023-03-14T07:16:47.083Z,937.04
2023-03-14T07:17:47.057Z,937.03
2023-03-14T07:18:47.028Z,937.04
2023-03-14T07:19:47.023Z,937.02
2023-03-14T07:20:47.032Z,937.05
2023-03-14T07:21:47.100Z,937.04
2023-03-14T07:22:47.017Z,937.03
2023-03-14T07:23:46.975Z,937.06
2023-03-14T07:24:46.961Z,937.09
2023-03-14T07:25:46.942Z,937.11
2023-03-14T07:26:46.958Z,937.16
2023-03-14T07:27:46.917Z,937.15
2023-03-14T07:28:46.904Z,937.15
2023-03-14T07:29:46.946Z,937.19
2023-03-14T07:30:46.890Z,937.20
2023-03-14T07:31:46.869Z,937.21
2023-03-14T07:32:46.946Z,937.21
2023-03-14T07:33:46.848Z,937.24
2023-03-14T07:34:46.824Z,937.27
2023-03-14T07:35:46.820Z,937.33
2023-03-14T07:36:46.815Z,937.34
2023-03-14T07:37:46.780Z,937.37
2023-03-14T07:38:46.759Z,937.41
2023-03-14T07:39:46.756Z,937.45
2023-03-14T07:40:46.736Z,937.47
2023-03-14T07:41:46.755Z,937.49
2023-03-14T07:42:46.723Z,937.48
2023-03-14T07:43:46.718Z,937.45
2023-03-14T07:44:46.687Z,937.47
2023-03-14T07:45:50.955Z,937.42
2023-03-14T07:46:46.813Z,937.42
2023-03-14T07:47:46.667Z,937.44
2023-03-14T07:48:46.641Z,937.39
2023-03-14T07:49:46.619Z,937.48
2023-03-14T07:50:47.023Z,937.45
2023-03-14T07:51:46.622Z,937.49
2023-03-14T07:52:46.602Z,937.48
2023-03-14T07:53:46.572Z,937.50
2023-03-14T07:54:46.557Z,937.46
2023-03-14T07:55:46.568Z,937.49
2023-03-14T07:56:46.531Z,937.46
2023-03-14T07:57:46.551Z,937.51
2023-03-14T07:58:46.498Z,937.51
2023-03-14T07:59:46.513Z,937.54
2023-03-14T08:00:46.474Z,937.55
2023-03-14T08:01:46.469Z,937.53
2023-03-14T08:02:46.641Z,937.51
2023-03-14T08:03:46.488Z,937.54
2023-03-14T08:04:46.437Z,937.57
2023-03-14T08:05:46.436Z,937.58
2023-03-14T08:06:46.420Z,937.58
2023-03-14T08:07:46.374Z,937.60
2023-03-14T08:08:46.414Z,937.61
2023-03-14T08:09:46.378Z,937.61
2023-03-14T08:10:46.351Z,937.56
2023-03-14T08:11:46.321Z,937.64
2023-03-14T08:12:46.317Z,937.63
2023-03-14T08:13:46.325Z,937.66
2023-03-14T08:14:46.302Z,937.65
2023-03-14T08:15:46.309Z,937.64
2023-03-14T08:16:46.311Z,937.56
2023-03-14T08:17:46.238Z,937.56
2023-03-14T08:18:46.260Z,937.53
2023-03-14T08:19:46.246Z,937.52
2023-03-14T08:20:46.213Z,937.55
2023-03-14T08:21:46.204Z,937.53
2023-03-14T08:22:46.198Z,937.54
2023-03-14T08:23:46.176Z,937.55
2023-03-14T08:24:46.198Z,937.53
2023-03-14T08:25:46.359Z,937.52
2023-03-14T08:26:46.121Z,937.49
2023-03-14T08:27:46.153Z,937.51
2023-03-14T08:28:46.115Z,937.51
2023-03-14T08:29:46.077Z,937.51
2023-03-14T08:30:47.791Z,937.54
2023-03-14T08:31:46.094Z,937.61
2023-03-14T08:32:46.081Z,937.65
2023-03-14T08:33:46.054Z,937.79
2023-03-14T08:34:46.027Z,937.83
2023-03-14T08:35:46.022Z,937.81
2023-03-14T08:36:45.999Z,937.82
2023-03-14T08:37:45.970Z,937.85
2023-03-14T08:38:46.195Z,937.80
2023-03-14T08:39:45.953Z,937.82
2023-03-14T08:40:45.946Z,937.79
2023-03-14T08:41:45.933Z,937.81
2023-03-14T08:42:45.897Z,937.84
2023-03-14T08:43:45.949Z,937.84
2023-03-14T08:44:45.889Z,937.79
2023-03-14T08:45:45.873Z,937.79
2023-03-14T08:46:45.930Z,937.82
2023-03-14T08:47:45.860Z,937.82
2023-03-14T08:48:45.848Z,937.86
2023-03-14T08:49:45.886Z,937.89
2023-03-14T08:50:45.816Z,937.89
2023-03-14T08:51:45.808Z,937.88
2023-03-14T08:52:45.894Z,937.91
2023-03-14T08:53:45.811Z,937.96
2023-03-14T08:54:45.762Z,937.99
2023-03-14T08:55:45.768Z,937.98
2023-03-14T08:56:45.722Z,938.00
2023-03-14T08:57:45.733Z,937.93
2023-03-14T08:58:45.736Z,937.98
2023-03-14T08:59:45.691Z,937.94
2023-03-14T09:00:45.732Z,937.96
2023-03-14T09:01:45.653Z,938.01
2023-03-14T09:02:45.668Z,937.98
2023-03-14T09:03:45.767Z,938.00
2023-03-14T09:04:45.668Z,937.98
2023-03-14T09:05:45.599Z,937.99
2023-03-14T09:06:45.591Z,938.01
2023-03-14T09:07:45.617Z,938.00
2023-03-14T09:08:45.559Z,938.02
2023-03-14T09:09:45.583Z,938.06
2023-03-14T09:10:45.539Z,938.04
2023-03-14T09:11:45.525Z,938.07
2023-03-14T09:12:45.507Z,938.10
2023-03-14T09:13:45.491Z,938.17
2023-03-14T09:14:45.514Z,938.21
2023-03-14T09:15:45.517Z,938.22
2023-03-14T09:16:45.487Z,938.22
2023-03-14T09:17:45.456Z,938.22
2023-03-14T09:18:45.426Z,938.18
2023-03-14T09:19:45.460Z,938.18
2023-03-14T09:20:45.396Z,938.19
2023-03-14T09:21:45.422Z,938.18
2023-03-14T09:22:45.375Z,938.18
2023-03-14T09:23:46.744Z,938.22
2023-03-14T09:24:45.376Z,938.23
2023-03-14T09:25:45.384Z,938.25
2023-03-14T09:26:45.332Z,938.24
2023-03-14T09:27:45.309Z,938.33
2023-03-14T09:28:45.282Z,938.31
2023-03-14T09:29:45.331Z,938.27
2023-03-14T09:30:45.311Z,938.31
2023-03-14T09:31:45.366Z,938.34
2023-03-14T09:32:45.278Z,938.41
2023-03-14T09:33:45.238Z,938.33
2023-03-14T09:34:45.241Z,938.36
2023-03-14T09:35:45.387Z,938.33
2023-03-14T09:36:45.187Z,938.30
2023-03-14T09:37:45.185Z,938.28
2023-03-14T09:38:45.175Z,938.24
2023-03-14T09:39:45.207Z,938.24
2023-03-14T09:40:45.142Z,938.28
2023-03-14T09:41:45.108Z,938.30
2023-03-14T09:42:45.112Z,938.27
2023-03-14T09:43:45.087Z,938.27
2023-03-14T09:44:45.102Z,938.26
2023-03-14T09:45:45.127Z,938.23
2023-03-14T09:46:45.055Z,938.27
2023-03-14T09:47:58.323Z,938.25
2023-03-14T09:48:45.025Z,938.17
2023-03-14T09:49:45.034Z,938.19
2023-03-14T09:50:44.987Z,938.15
2023-03-14T09:51:44.975Z,938.21
2023-03-14T09:52:45.015Z,938.19
2023-03-14T09:53:44.962Z,938.18
2023-03-14T09:54:44.944Z,938.19
2023-03-14T09:55:44.961Z,938.17
2023-03-14T09:56:44.914Z,938.24
2023-03-14T09:57:44.937Z,938.19
2023-03-14T09:58:44.877Z,938.20
2023-03-14T09:59:44.900Z,938.17
2023-03-14T10:00:44.871Z,938.20
2023-03-14T10:01:44.875Z,938.24
2023-03-14T10:02:44.864Z,938.22
2023-03-14T10:03:44.831Z,938.20
2023-03-14T10:04:44.847Z,938.20
2023-03-14T10:05:44.805Z,938.27
2023-03-14T10:06:44.781Z,938.24
2023-03-14T10:07:44.768Z,938.27
2023-03-14T10:08:44.798Z,938.25
2023-03-14T10:09:44.757Z,938.28
2023-03-14T10:10:44.728Z,938.32
2023-03-14T10:11:44.701Z,938.31
2023-03-14T10:12:44.766Z,938.32
2023-03-14T10:13:44.682Z,938.35
2023-03-14T10:14:44.678Z,938.31
2023-03-14T10:15:44.644Z,938.31
2023-03-14T10:16:44.741Z,938.29
2023-03-14T10:17:44.622Z,938.28
2023-03-14T10:18:44.660Z,938.26
2023-03-14T10:19:44.604Z,938.35
2023-03-14T10:20:44.601Z,938.35
2023-03-14T10:21:44.641Z,938.31
2023-03-14T10:22:44.576Z,938.31
2023-03-14T10:23:44.580Z,938.19
2023-03-14T10:24:44.591Z,938.27
2023-03-14T10:25:44.516Z,938.29
2023-03-14T10:26:44.511Z,938.38
2023-03-14T10:27:44.508Z,938.37
2023-03-14T10:28:44.518Z,938.43
2023-03-14T10:29:44.463Z,938.37
2023-03-14T10:30:44.503Z,938.37
2023-03-14T10:31:44.421Z,938.41
2023-03-14T10:32:44.471Z,938.38
2023-03-14T10:33:44.411Z,938.41
2023-03-14T10:34:44.441Z,938.39
2023-03-14T10:35:44.394Z,938.41
2023-03-14T10:36:44.372Z,938.44
2023-03-14T10:37:44.360Z,938.43
2023-03-14T10:38:44.378Z,938.36
2023-03-14T10:39:44.876Z,938.38
2023-03-14T10:40:44.326Z,938.40
2023-03-14T10:41:44.316Z,938.35
2023-03-14T10:42:44.295Z,938.35
2023-03-14T10:43:44.311Z,938.34
2023-03-14T10:44:44.283Z,938.31
2023-03-14T10:45:44.287Z,938.34
2023-03-14T10:46:44.243Z,938.28
2023-03-14T10:47:44.241Z,938.28
2023-03-14T10:48:44.319Z,938.32
2023-03-14T10:49:44.195Z,938.28
2023-03-14T10:50:44.182Z,938.31
2023-03-14T10:51:44.167Z,938.36
2023-03-14T10:53:01.488Z,938.28
2023-03-14T10:53:44.293Z,938.32
2023-03-14T10:54:44.178Z,938.33
2023-03-14T10:55:44.111Z,938.39
2023-03-14T10:56:44.140Z,938.26
2023-03-14T10:57:44.117Z,938.27
2023-03-14T10:58:44.086Z,938.28
2023-03-14T10:59:44.117Z,938.19
2023-03-14T11:00:44.053Z,938.29
2023-03-14T11:01:44.121Z,938.14
2023-03-14T11:02:44.081Z,938.16
2023-03-14T11:03:44.019Z,938.16
2023-03-14T11:04:44.123Z,938.16
2023-03-14T11:05:44.018Z,938.18
2023-03-14T11:06:43.986Z,938.24
2023-03-14T11:07:43.978Z,938.18
2023-03-14T11:08:43.951Z,938.23
2023-03-14T11:09:43.935Z,938.26
2023-03-14T11:10:44.030Z,938.28
2023-03-14T11:11:43.897Z,938.21
2023-03-14T11:12:43.912Z,938.34
2023-03-14T11:13:43.874Z,938.35
2023-03-14T11:14:43.875Z,938.46
2023-03-14T11:15:43.928Z,938.43
2023-03-14T11:16:43.892Z,938.53
2023-03-14T11:17:43.837Z,938.60
2023-03-14T11:18:43.816Z,938.63
2023-03-14T11:19:43.837Z,938.62
2023-03-14T11:20:43.794Z,938.61
2023-03-14T11:21:43.794Z,938.61
2023-03-14T11:22:43.779Z,938.57
2023-03-14T11:23:43.750Z,938.61
2023-03-14T11:24:43.749Z,938.53
2023-03-14T11:25:43.717Z,938.61
2023-03-14T11:26:43.761Z,938.45
2023-03-14T11:27:43.771Z,938.42
2023-03-14T11:28:43.680Z,938.36
2023-03-14T11:29:43.670Z,938.40
2023-03-14T11:30:43.665Z,938.42
2023-03-14T11:31:43.686Z,938.38
2023-03-14T11:32:43.718Z,938.40
2023-03-14T11:33:43.603Z,938.34
2023-03-14T11:34:43.624Z,938.30
2023-03-14T11:35:43.699Z,938.25
2023-03-14T11:36:43.586Z,938.19
2023-03-14T11:37:43.558Z,938.24
2023-03-14T11:38:43.569Z,938.17
2023-03-14T11:39:43.523Z,938.17
2023-03-14T11:40:43.515Z,938.20
2023-03-14T11:41:43.517Z,937.99
2023-03-14T11:42:43.501Z,938.02
2023-03-14T11:43:43.508Z,937.89
2023-03-14T11:44:43.468Z,937.99
2023-03-14T11:45:43.471Z,937.96
2023-03-14T11:46:43.745Z,937.92
2023-03-14T11:47:43.454Z,937.87
2023-03-14T11:48:43.416Z,937.85
2023-03-14T11:49:43.948Z,937.86
2023-03-14T11:50:43.399Z,937.89
2023-03-14T11:51:43.375Z,937.83
2023-03-14T11:52:44.494Z,937.86
2023-03-14T11:53:43.363Z,937.92
2023-03-14T11:54:43.319Z,937.87
2023-03-14T11:55:43.325Z,937.92
2023-03-14T11:56:43.309Z,937.93
2023-03-14T11:57:43.298Z,937.91
2023-03-14T11:58:44.490Z,937.89
2023-03-14T11:59:43.310Z,937.91
2023-03-14T12:00:43.256Z,937.90
2023-03-14T12:01:43.258Z,937.86
2023-03-14T12:02:43.220Z,937.80
2023-03-14T12:03:43.263Z,937.78
2023-03-14T12:04:44.483Z,937.82
2023-03-14T12:05:43.206Z,937.85
2023-03-14T12:06:43.189Z,937.88
2023-03-14T12:07:43.153Z,937.87
2023-03-14T12:08:43.157Z,937.84
2023-03-14T12:09:43.120Z,937.82
2023-03-14T12:10:43.127Z,937.80
2023-03-14T12:11:43.113Z,937.83
2023-03-14T12:12:43.083Z,937.79
2023-03-14T12:13:43.097Z,937.76
2023-03-14T12:14:43.062Z,937.66
2023-03-14T12:15:43.084Z,937.69
2023-03-14T12:16:43.103Z,937.65
2023-03-14T12:17:43.056Z,937.64
2023-03-14T12:18:43.002Z,937.69
2023-03-14T12:19:43.042Z,937.65
2023-03-14T12:20:42.983Z,937.71
2023-03-14T12:21:42.992Z,937.73
2023-03-14T12:22:42.964Z,937.70
2023-03-14T12:23:43.028Z,937.71
2023-03-14T12:24:42.964Z,937.66
2023-03-14T12:25:42.912Z,937.68
2023-03-14T12:26:42.901Z,937.61
2023-03-14T12:27:42.873Z,937.63
2023-03-14T12:28:42.912Z,937.59